Time;durP1;ratioP1;P1;durP2;ratioP2;P2;SDS_P1;SDS_P2;PMS_P1;PMS_P2;Temp;Humidity;BMP_temperature;BMP_pressure;BME280_temperature;BME280_humidity;BME280_pressure;Samples;Min_cycle;Max_cycle;Signal;HPM_P1;HPM_P2
2021/07/21 00:01:43;;;;;;;10.93;6.80;;;;;;;17.96;65.63;155978.19;5076342;28;20560;-82
2021/07/21 00:04:18;;;;;;;8.43;6.40;;;;;;;17.91;65.64;155963.88;5076860;28;20946;-82
2021/07/21 00:06:54;;;;;;;8.63;6.40;;;;;;;17.81;66.05;155939.16;5078132;28;20536;-82
2021/07/21 00:09:30;;;;;;;7.77;6.93;;;;;;;17.73;66.26;155918.31;5070493;28;20528;-82
2021/07/21 00:15:02;;;;;;;8.00;6.67;;;;;;;17.76;67.30;155926.13;5073020;28;20839;-81
2021/07/21 00:17:38;;;;;;;7.63;6.23;;;;;;;17.84;66.80;155945.66;5096522;28;20437;-81
2021/07/21 00:20:16;;;;;;;8.67;7.17;;;;;;;17.78;67.19;155931.31;5095910;28;20449;-81
2021/07/21 00:22:51;;;;;;;8.20;6.77;;;;;;;17.74;66.84;155920.88;5095377;28;20468;-81
2021/07/21 00:25:28;;;;;;;8.20;6.47;;;;;;;17.63;67.17;155892.28;5077177;28;20433;-81
2021/07/21 00:28:04;;;;;;;10.17;6.70;;;;;;;17.59;66.85;155881.84;5100807;28;20925;-81
2021/07/21 00:30:39;;;;;;;8.97;7.03;;;;;;;17.47;67.04;155851.84;5057051;28;20474;-81
2021/07/21 00:33:15;;;;;;;7.60;6.80;;;;;;;17.45;67.42;155845.34;5060646;28;20869;-81
2021/07/21 00:35:51;;;;;;;9.37;6.87;;;;;;;17.44;67.97;155842.75;5042646;28;20458;-81
2021/07/21 00:38:26;;;;;;;11.60;6.60;;;;;;;17.32;67.91;155812.81;5111287;28;21175;-81
2021/07/21 00:41:03;;;;;;;12.37;7.63;;;;;;;17.29;68.81;155803.72;5051034;28;20457;-81
2021/07/21 00:43:43;;;;;;;7.63;6.73;;;;;;;17.29;68.15;155803.72;5081956;28;20437;-81
2021/07/21 00:46:19;;;;;;;10.67;6.60;;;;;;;17.33;68.26;155814.13;5091403;28;20481;-81
2021/07/21 00:48:55;;;;;;;9.63;6.10;;;;;;;17.32;68.67;155811.50;5092526;28;20448;-82
2021/07/21 00:51:31;;;;;;;7.50;6.70;;;;;;;17.44;68.99;155844.06;5064578;28;20445;-81
2021/07/21 00:54:06;;;;;;;11.47;9.13;;;;;;;17.46;68.18;155849.25;5041768;28;20430;-82
2021/07/21 00:56:43;;;;;;;10.27;8.00;;;;;;;17.50;68.26;155858.38;5059116;28;20441;-82
2021/07/21 00:59:20;;;;;;;8.50;7.23;;;;;;;17.50;68.14;155858.38;5056793;28;20442;-82
2021/07/21 01:01:57;;;;;;;8.70;6.80;;;;;;;17.49;68.41;155855.78;5072074;28;20474;-82
2021/07/21 01:04:35;;;;;;;8.50;7.27;;;;;;;17.40;68.87;155832.31;5056842;28;20533;-82
2021/07/21 01:07:12;;;;;;;8.87;6.90;;;;;;;17.31;69.00;155808.91;5061055;28;20532;-82
2021/07/21 01:09:51;;;;;;;7.27;6.10;;;;;;;17.28;69.08;155801.09;5060834;28;20834;-81
2021/07/21 01:12:34;;;;;;;9.57;7.33;;;;;;;17.12;69.41;155759.47;5095253;28;20527;-81
2021/07/21 01:15:12;;;;;;;8.67;6.90;;;;;;;17.08;70.45;155749.06;5059442;28;20437;-82
2021/07/21 01:17:52;;;;;;;10.83;6.60;;;;;;;16.98;70.69;155725.63;5076867;28;20492;-81
2021/07/21 01:20:48;;;;;;;8.60;6.60;;;;;;;16.97;71.84;155723.00;5072133;28;20536;-82
2021/07/21 01:23:40;;;;;;;10.23;7.27;;;;;;;16.88;71.64;155698.31;5040825;28;20434;-81
2021/07/21 01:26:18;;;;;;;8.97;7.40;;;;;;;16.83;72.83;155686.59;5092145;28;20446;-82
2021/07/21 01:28:58;;;;;;;9.67;6.97;;;;;;;16.78;72.35;155673.59;5055806;28;20465;-81
2021/07/21 01:31:38;;;;;;;10.17;7.63;;;;;;;16.73;72.16;155660.53;5053253;28;20442;-82
2021/07/21 01:34:15;;;;;;;8.83;6.80;;;;;;;16.69;72.58;155648.84;5109168;28;20428;-82
2021/07/21 01:36:52;;;;;;;9.03;6.80;;;;;;;16.69;72.59;155650.16;5077271;28;20891;-81
2021/07/21 01:39:33;;;;;;;9.63;6.90;;;;;;;16.67;72.67;155643.66;5094182;28;20520;-81
2021/07/21 01:42:11;;;;;;;8.30;7.50;;;;;;;16.64;72.68;155637.16;5060585;28;20552;-82
2021/07/21 01:44:50;;;;;;;8.30;6.67;;;;;;;16.67;73.24;155644.97;5053514;28;21920;-82
2021/07/21 01:47:28;;;;;;;7.87;6.50;;;;;;;16.62;73.84;155631.97;5064026;28;20449;-82
2021/07/21 01:50:06;;;;;;;12.13;7.27;;;;;;;16.58;74.64;155620.22;5075192;28;20441;-82
2021/07/21 01:52:48;;;;;;;9.37;6.73;;;;;;;16.66;73.52;155642.34;5073788;28;20426;-82
2021/07/21 01:55:27;;;;;;;9.33;7.90;;;;;;;16.81;73.47;155681.38;5082027;28;20915;-76
2021/07/21 01:58:04;;;;;;;9.97;7.10;;;;;;;16.80;73.10;155678.78;5046604;28;21226;-76
2021/07/21 02:01:06;;;;;;;8.90;7.50;;;;;;;16.80;73.24;155677.47;5058538;28;20476;-76
2021/07/21 02:03:43;;;;;;;9.77;7.73;;;;;;;16.74;73.58;155663.16;5063653;28;20450;-76
2021/07/21 02:06:27;;;;;;;8.43;7.00;;;;;;;16.66;74.21;155642.34;5107513;28;20445;-76
2021/07/21 02:09:06;;;;;;;8.27;6.80;;;;;;;16.68;74.04;155647.53;5073788;28;20956;-76
2021/07/21 02:11:45;;;;;;;12.90;8.07;;;;;;;16.65;74.20;155639.78;5059164;28;20449;-76
2021/07/21 02:14:21;;;;;;;12.10;7.90;;;;;;;16.62;73.85;155631.97;5057237;28;20476;-76
2021/07/21 02:17:07;;;;;;;8.70;6.90;;;;;;;16.61;74.42;155629.34;5073899;28;20456;-76
2021/07/21 02:19:49;;;;;;;9.57;7.13;;;;;;;16.53;74.77;155608.53;5072500;28;20437;-76
2021/07/21 02:22:43;;;;;;;12.13;8.23;;;;;;;16.40;75.21;155574.66;5044984;28;20567;-82
2021/07/21 02:25:58;;;;;;;11.03;7.40;;;;;;;16.40;75.37;155574.66;5047991;28;20440;-82
2021/07/21 02:28:37;;;;;;;9.17;7.33;;;;;;;16.34;75.32;155559.06;5002908;28;20938;-81
2021/07/21 02:31:19;;;;;;;10.00;7.30;;;;;;;16.31;75.28;155551.25;5062439;28;20444;-82
2021/07/21 02:34:02;;;;;;;7.80;6.73;;;;;;;16.30;76.23;155549.97;5100049;28;20484;-82
2021/07/21 02:36:40;;;;;;;8.93;7.00;;;;;;;16.26;76.19;155538.25;5083034;28;20444;-81
2021/07/21 02:39:16;;;;;;;9.60;7.30;;;;;;;16.20;77.17;155523.94;5083483;28;20562;-81
2021/07/21 02:41:52;;;;;;;11.03;7.63;;;;;;;16.16;76.76;155512.25;5077485;28;20473;-82
2021/07/21 02:44:29;;;;;;;9.20;7.60;;;;;;;16.13;76.88;155504.44;5082217;28;20928;-81
2021/07/21 02:47:05;;;;;;;9.63;7.23;;;;;;;16.08;77.09;155492.75;5100713;28;20452;-81
2021/07/21 02:49:44;;;;;;;9.07;7.50;;;;;;;16.13;76.63;155505.75;5083298;28;20440;-81
2021/07/21 02:52:23;;;;;;;10.17;8.07;;;;;;;16.30;76.62;155548.66;5082208;28;20449;-82
2021/07/21 02:55:09;;;;;;;8.93;7.93;;;;;;;16.23;76.79;155531.75;5066327;28;20440;-82
2021/07/21 02:57:49;;;;;;;9.50;7.50;;;;;;;16.18;77.01;155518.75;5100020;28;20444;-81
2021/07/21 03:00:28;;;;;;;10.20;7.90;;;;;;;16.19;76.68;155520.03;5067683;28;20453;-81
2021/07/21 03:03:17;;;;;;;9.37;7.70;;;;;;;16.16;77.32;155512.25;5055453;28;20813;-82
2021/07/21 03:05:56;;;;;;;10.30;8.30;;;;;;;16.12;77.53;155503.16;5100159;28;20429;-81
2021/07/21 03:08:42;;;;;;;9.50;7.30;;;;;;;16.12;77.86;155501.88;5099498;28;20473;-81
2021/07/21 03:11:31;;;;;;;13.30;8.13;;;;;;;16.11;78.74;155499.25;5078041;28;20445;-82
2021/07/21 03:14:08;;;;;;;8.27;6.83;;;;;;;16.16;78.35;155513.53;5083535;28;20420;-82
2021/07/21 03:16:54;;;;;;;11.00;7.27;;;;;;;16.20;78.80;155522.66;5071962;28;20467;-81
2021/07/21 03:19:43;;;;;;;10.33;7.10;;;;;;;16.10;78.80;155496.63;5065672;28;20460;-81
2021/07/21 03:22:27;;;;;;;9.10;6.97;;;;;;;16.03;79.03;155479.75;5099802;28;20559;-81
2021/07/21 03:25:10;;;;;;;8.77;7.40;;;;;;;16.06;79.54;155486.25;5066476;28;20440;-81
2021/07/21 03:27:55;;;;;;;11.10;7.80;;;;;;;16.11;80.02;155499.25;5093465;28;20457;-82
2021/07/21 03:30:49;;;;;;;8.73;7.90;;;;;;;15.92;80.30;155451.13;5045618;28;20465;-81
2021/07/21 03:33:28;;;;;;;11.30;8.40;;;;;;;15.86;80.39;155435.50;5062932;28;20412;-81
2021/07/21 03:36:10;;;;;;;9.13;8.00;;;;;;;15.86;81.44;155434.25;5037667;28;20445;-82
2021/07/21 03:39:11;;;;;;;11.00;8.43;;;;;;;15.74;80.95;155404.34;5056616;28;20448;-81
2021/07/21 03:42:02;;;;;;;10.07;8.60;;;;;;;15.74;81.19;155404.34;5042941;28;20512;-82
2021/07/21 03:44:38;;;;;;;9.00;8.10;;;;;;;15.80;81.27;155421.25;5042070;28;20433;-82
2021/07/21 03:47:15;;;;;;;11.67;9.57;;;;;;;15.83;81.01;155429.03;5058166;28;20507;-82
2021/07/21 03:49:51;;;;;;;8.67;7.60;;;;;;;15.90;80.71;155445.94;5072160;28;20449;-81
2021/07/21 03:52:33;;;;;;;8.90;7.37;;;;;;;15.81;81.61;155422.53;5059308;28;20445;-82
2021/07/21 03:55:19;;;;;;;10.23;7.83;;;;;;;15.70;82.31;155395.22;5039318;28;20454;-81
2021/07/21 03:58:05;;;;;;;11.40;7.80;;;;;;;15.72;82.39;155400.47;5042021;28;20447;-81
2021/07/21 04:00:55;;;;;;;13.13;9.67;;;;;;;15.72;82.14;155400.47;5035897;28;20457;-81
2021/07/21 04:03:39;;;;;;;10.30;8.67;;;;;;;15.72;82.08;155399.16;5032320;28;20814;-82
2021/07/21 04:06:16;;;;;;;10.20;8.70;;;;;;;15.72;81.92;155400.47;5054832;28;20441;-81
2021/07/21 04:09:23;;;;;;;10.50;7.93;;;;;;;15.90;81.66;155444.63;5043054;28;20447;-82
2021/07/21 04:12:02;;;;;;;9.80;7.90;;;;;;;15.80;81.40;155419.94;5025717;28;20551;-81
2021/07/21 04:14:58;;;;;;;9.87;8.63;;;;;;;15.71;81.67;155397.84;5039451;28;20785;-81
2021/07/21 04:17:45;;;;;;;10.70;8.30;;;;;;;15.66;82.32;155383.53;5025313;28;20453;-81
2021/07/21 04:20:28;;;;;;;11.50;7.80;;;;;;;15.70;82.20;155395.22;5054994;28;20883;-81
2021/07/21 04:23:04;;;;;;;11.10;9.07;;;;;;;15.68;82.63;155390.03;5025368;28;20472;-81
2021/07/21 04:25:42;;;;;;;13.57;9.07;;;;;;;15.65;82.75;155382.22;5045391;28;20533;-82
2021/07/21 04:28:20;;;;;;;12.07;8.40;;;;;;;15.60;82.98;155369.22;5038538;28;20472;-81
2021/07/21 04:31:08;;;;;;;15.80;8.27;;;;;;;15.71;82.92;155396.53;5063705;28;20439;-82
2021/07/21 04:33:46;;;;;;;12.80;7.67;;;;;;;16.31;80.60;155551.25;5078943;28;21259;-82
2021/07/21 04:36:23;;;;;;;10.73;7.70;;;;;;;16.88;78.04;155699.63;5088306;28;20452;-82
2021/07/21 04:39:01;;;;;;;10.57;8.20;;;;;;;17.25;76.12;155794.59;5059464;28;20534;-81
2021/07/21 04:41:59;;;;;;;11.27;8.30;;;;;;;17.61;74.66;155888.34;5076915;28;20440;-81
2021/07/21 04:44:43;;;;;;;10.87;8.23;;;;;;;17.85;73.58;155948.22;5077242;28;20413;-83
2021/07/21 04:47:21;;;;;;;10.10;7.27;;;;;;;18.46;70.82;156105.81;5059813;28;20773;-83
2021/07/21 04:49:59;;;;;;;18.37;9.33;;;;;;;18.53;70.89;156125.38;5042685;28;20462;-83
2021/07/21 04:52:36;;;;;;;15.73;8.33;;;;;;;18.68;70.04;156164.50;5058285;28;20908;-81
2021/07/21 04:55:12;;;;;;;14.60;8.97;;;;;;;18.91;69.31;156221.78;5046538;28;20926;-81
2021/07/21 04:57:50;;;;;;;12.10;8.70;;;;;;;19.03;68.95;156253.09;5061264;28;20448;-82
2021/07/21 05:00:44;;;;;;;10.60;8.80;;;;;;;19.33;66.88;156332.56;5043760;28;20438;-83
2021/07/21 05:03:26;;;;;;;10.30;8.57;;;;;;;19.68;65.87;156421.25;5082927;28;20551;-81
2021/07/21 05:06:06;;;;;;;9.77;7.80;;;;;;;19.98;64.93;156499.50;5076470;28;20457;-82
2021/07/21 05:08:49;;;;;;;12.60;8.80;;;;;;;19.93;65.02;156487.78;5077081;28;21004;-82
2021/07/21 05:11:32;;;;;;;14.70;8.77;;;;;;;19.78;66.02;156448.63;5041414;28;20454;-83
2021/07/21 05:14:09;;;;;;;10.00;8.13;;;;;;;19.69;66.60;156423.88;5066730;28;20445;-83
2021/07/21 05:17:06;;;;;;;11.63;9.63;;;;;;;19.76;66.47;156442.13;5090129;28;20454;-83
2021/07/21 05:19:43;;;;;;;9.67;8.67;;;;;;;20.02;65.15;156511.22;5058600;28;20441;-83
2021/07/21 05:22:20;;;;;;;10.83;8.63;;;;;;;20.14;64.02;156539.94;5076297;28;20535;-83
2021/07/21 05:24:56;;;;;;;9.77;8.77;;;;;;;20.30;63.82;156583.03;5060860;28;20445;-85
2021/07/21 05:27:34;;;;;;;10.40;7.40;;;;;;;20.34;64.66;156592.13;5060620;28;20438;-84
2021/07/21 05:30:10;;;;;;;9.50;7.77;;;;;;;20.40;64.54;156607.78;5093808;28;20469;-84
2021/07/21 05:33:06;;;;;;;9.10;8.17;;;;;;;20.56;63.34;156650.84;5076897;28;20449;-84
2021/07/21 05:35:45;;;;;;;9.30;8.30;;;;;;;20.44;63.89;156618.22;5060522;28;20453;-84
2021/07/21 05:38:25;;;;;;;14.57;8.73;;;;;;;19.97;66.18;156496.88;5077476;28;20487;-84
2021/07/21 05:41:02;;;;;;;8.93;8.03;;;;;;;20.74;64.26;156696.50;5060576;28;20457;-84
2021/07/21 05:43:50;;;;;;;9.63;8.60;;;;;;;20.52;64.09;156639.06;5093776;28;20473;-84
2021/07/21 05:46:26;;;;;;;10.40;8.30;;;;;;;20.91;63.70;156739.56;5080058;28;20445;-84
2021/07/21 05:49:04;;;;;;;11.07;9.97;;;;;;;21.31;62.62;156842.72;5059393;28;20864;-84
2021/07/21 05:52:01;;;;;;;10.10;8.87;;;;;;;21.84;61.31;156981.09;5077457;28;20543;-84
2021/07/21 05:54:40;;;;;;;11.30;9.10;;;;;;;21.99;60.95;157019.00;5060055;28;20433;-84
2021/07/21 05:57:17;;;;;;;11.10;9.47;;;;;;;22.17;59.88;157066.00;5075630;28;20453;-85
2021/07/21 06:00:00;;;;;;;11.97;8.40;;;;;;;22.16;58.18;157064.69;5064474;28;20438;-85
2021/07/21 06:02:37;;;;;;;10.63;9.63;;;;;;;22.44;57.64;157136.53;5054992;28;20446;-85
2021/07/21 06:05:14;;;;;;;10.37;9.13;;;;;;;22.28;57.76;157094.75;5088416;28;20433;-85
2021/07/21 06:08:10;;;;;;;10.13;9.03;;;;;;;22.25;58.16;157088.22;5058302;28;20445;-84
2021/07/21 06:11:16;;;;;;;11.43;9.67;;;;;;;22.54;57.87;157161.34;5079667;28;20456;-85
2021/07/21 06:13:56;;;;;;;10.40;9.07;;;;;;;22.23;59.01;157081.69;5069788;28;20436;-85
2021/07/21 06:16:33;;;;;;;11.90;9.60;;;;;;;22.56;57.86;157167.88;5059689;28;20445;-85
2021/07/21 06:19:08;;;;;;;10.63;8.43;;;;;;;22.78;57.31;157225.41;5074747;28;21113;-85
2021/07/21 06:21:46;;;;;;;13.30;9.10;;;;;;;22.60;56.37;157178.34;5093796;28;20429;-85
2021/07/21 06:24:42;;;;;;;10.53;8.57;;;;;;;22.72;57.54;157208.41;5066704;28;20469;-85
2021/07/21 06:27:30;;;;;;;15.50;9.53;;;;;;;23.24;55.67;157344.34;5059690;28;20445;-87
2021/07/21 06:30:10;;;;;;;9.90;8.87;;;;;;;23.50;54.94;157411.03;5076327;28;21095;-86
2021/07/21 06:32:47;;;;;;;11.10;8.97;;;;;;;23.56;54.91;157426.75;5069657;28;20446;-86
2021/07/21 06:35:23;;;;;;;9.17;8.20;;;;;;;23.56;54.60;157428.00;5099995;28;20971;-86
2021/07/21 06:38:00;;;;;;;12.80;9.10;;;;;;;23.93;53.69;157523.47;5092263;28;20441;-86
2021/07/21 06:40:38;;;;;;;10.97;9.80;;;;;;;23.79;53.68;157486.88;5076164;28;20449;-85
2021/07/21 06:43:17;;;;;;;9.80;8.80;;;;;;;23.13;55.64;157314.28;5075806;28;20504;-86
2021/07/21 06:46:12;;;;;;;13.40;10.90;;;;;;;23.09;55.36;157303.84;5057509;28;20545;-86
2021/07/21 06:48:48;;;;;;;11.20;8.63;;;;;;;23.94;52.90;157524.75;5057027;28;20418;-86
2021/07/21 06:51:25;;;;;;;15.30;8.57;;;;;;;23.82;54.41;157494.72;5060255;28;20448;-86
2021/07/21 06:54:02;;;;;;;10.43;8.40;;;;;;;24.27;53.59;157611.13;5062931;28;20446;-85
2021/07/21 06:56:56;;;;;;;11.07;8.73;;;;;;;23.60;54.20;157437.16;5075693;28;20461;-87
2021/07/21 06:59:50;;;;;;;10.33;9.40;;;;;;;23.81;54.48;157492.06;5084833;28;20441;-87
2021/07/21 07:02:37;;;;;;;10.37;9.27;;;;;;;24.19;52.84;157590.22;5071975;28;21003;-86
2021/07/21 07:05:39;;;;;;;10.27;9.23;;;;;;;24.37;52.32;157635.97;5070468;28;20441;-87
2021/07/21 07:08:34;;;;;;;10.43;9.43;;;;;;;24.35;50.80;157630.75;5086338;28;20797;-86
2021/07/21 07:11:29;;;;;;;10.27;9.30;;;;;;;24.33;51.67;157625.53;5089869;28;20452;-86
2021/07/21 07:14:08;;;;;;;9.57;8.33;;;;;;;25.06;50.90;157816.56;5110046;28;20532;-87
2021/07/21 07:16:44;;;;;;;12.60;10.27;;;;;;;25.24;49.49;157862.34;5079919;28;20452;-87
2021/07/21 07:19:19;;;;;;;13.27;9.40;;;;;;;25.41;49.05;157908.19;5080282;28;20449;-87
2021/07/21 07:21:55;;;;;;;12.77;10.30;;;;;;;25.33;48.58;157887.22;5096525;28;20935;-87
2021/07/21 07:24:30;;;;;;;12.70;9.90;;;;;;;25.37;48.69;157897.69;5074136;28;20935;-87
2021/07/21 07:27:07;;;;;;;11.80;9.23;;;;;;;25.67;49.27;157973.66;5063488;28;20853;-87
2021/07/21 07:29:42;;;;;;;11.13;9.97;;;;;;;25.20;50.19;157853.22;5078703;28;20477;-87
2021/07/21 07:32:18;;;;;;;11.33;10.10;;;;;;;26.07;48.11;158078.41;5073749;28;20445;-87
2021/07/21 07:34:53;;;;;;;11.30;9.93;;;;;;;26.12;48.26;158091.47;5085292;28;20441;-88
2021/07/21 07:37:29;;;;;;;11.57;10.47;;;;;;;26.17;47.53;158104.63;5059281;28;20473;-87
2021/07/21 07:40:06;;;;;;;12.17;9.57;;;;;;;26.85;47.42;158280.16;5077969;28;20414;-88
2021/07/21 07:42:43;;;;;;;11.70;10.50;;;;;;;26.49;46.72;158188.44;5092277;28;20449;-87
2021/07/21 07:45:19;;;;;;;10.43;9.43;;;;;;;26.40;47.38;158164.84;5076938;28;20761;-88
2021/07/21 07:47:54;;;;;;;12.83;10.73;;;;;;;27.03;46.15;158327.34;5079173;28;20815;-88
2021/07/21 07:50:30;;;;;;;12.73;10.03;;;;;;;26.76;46.38;158256.53;5079166;28;20445;-88
2021/07/21 07:53:05;;;;;;;10.83;9.83;;;;;;;26.06;47.50;158075.75;5092854;28;20441;-88
2021/07/21 07:55:41;;;;;;;10.47;9.40;;;;;;;27.14;46.92;158357.44;5096955;28;20746;-88
2021/07/21 07:58:18;;;;;;;10.87;9.80;;;;;;;27.16;46.21;158361.41;5112774;28;20449;-88
2021/07/21 08:00:54;;;;;;;10.80;9.80;;;;;;;27.50;44.17;158450.56;5062395;28;21011;-88
2021/07/21 08:03:29;;;;;;;10.70;9.60;;;;;;;27.06;46.03;158335.16;5105821;28;20474;-88
2021/07/21 08:06:05;;;;;;;11.20;9.57;;;;;;;26.75;47.07;158253.91;5087339;28;20475;-87
2021/07/21 08:08:41;;;;;;;11.57;10.17;;;;;;;26.88;46.48;158289.34;5097249;28;20449;-87
2021/07/21 08:11:16;;;;;;;12.40;10.20;;;;;;;26.35;46.75;158151.75;5079013;28;20886;-87
2021/07/21 08:13:53;;;;;;;11.80;10.60;;;;;;;27.09;46.27;158344.34;5070319;28;20437;-88
2021/07/21 08:16:28;;;;;;;11.03;9.97;;;;;;;27.02;46.79;158324.72;5096965;28;20524;-87
2021/07/21 08:19:04;;;;;;;9.80;8.80;;;;;;;27.07;45.85;158339.13;5057494;28;20440;-87
2021/07/21 08:21:40;;;;;;;13.93;9.60;;;;;;;26.80;44.89;158267.06;5079112;28;21042;-87
2021/07/21 08:24:16;;;;;;;11.17;9.50;;;;;;;27.05;46.94;158333.91;5095899;28;20555;-87
2021/07/21 08:26:51;;;;;;;10.60;9.37;;;;;;;27.05;45.40;158333.91;5056233;28;20540;-87
2021/07/21 08:29:28;;;;;;;10.60;9.60;;;;;;;26.35;46.90;158150.44;5091521;28;20464;-88
2021/07/21 08:32:05;;;;;;;14.53;10.33;;;;;;;26.41;46.57;158167.47;5096378;28;20840;-87
2021/07/21 08:34:40;;;;;;;10.43;9.33;;;;;;;26.46;46.59;158179.25;5078274;28;20449;-87
2021/07/21 08:37:16;;;;;;;14.30;9.90;;;;;;;26.26;46.99;158128.22;5077361;28;20453;-87
2021/07/21 08:39:51;;;;;;;10.77;9.67;;;;;;;26.43;46.58;158172.72;5077469;28;20449;-87
2021/07/21 08:42:27;;;;;;;11.07;9.97;;;;;;;26.46;45.93;158179.25;5092776;28;20473;-86
2021/07/21 08:45:05;;;;;;;12.10;10.93;;;;;;;25.91;47.93;158037.81;5092025;28;20548;-86
2021/07/21 08:47:41;;;;;;;10.30;8.90;;;;;;;26.74;48.70;158251.31;5084923;28;20457;-86
2021/07/21 08:50:17;;;;;;;10.70;9.70;;;;;;;26.43;46.82;158172.72;5075527;28;20442;-86
2021/07/21 08:52:54;;;;;;;11.10;10.00;;;;;;;26.36;47.48;158154.41;5073414;28;20460;-77
2021/07/21 08:55:30;;;;;;;10.70;9.60;;;;;;;26.44;46.33;158175.34;5069497;28;20437;-77
2021/07/21 08:58:05;;;;;;;11.73;9.60;;;;;;;26.76;47.19;158257.88;5067351;28;20467;-77
2021/07/21 09:00:42;;;;;;;10.10;9.10;;;;;;;27.27;45.94;158390.19;5075769;28;20437;-77
2021/07/21 09:03:19;;;;;;;11.87;10.67;;;;;;;26.88;45.87;158288.00;5062176;28;20456;-76
2021/07/21 09:05:55;;;;;;;10.30;9.30;;;;;;;27.36;45.41;158413.81;5078013;28;20547;-77
2021/07/21 09:08:34;;;;;;;10.70;9.60;;;;;;;27.44;44.35;158434.81;5060217;28;20445;-77
2021/07/21 09:11:11;;;;;;;10.60;9.57;;;;;;;27.25;44.96;158383.66;5069078;28;20512;-77
2021/07/21 09:13:47;;;;;;;10.17;9.23;;;;;;;26.74;46.10;158252.59;5073555;28;20523;-77
2021/07/21 09:16:24;;;;;;;11.60;9.10;;;;;;;27.47;45.99;158441.38;5081739;28;20446;-77
2021/07/21 09:18:59;;;;;;;10.33;9.40;;;;;;;27.49;44.96;158446.59;5085932;28;20441;-77
2021/07/21 09:21:35;;;;;;;13.17;9.23;;;;;;;26.88;45.12;158288.00;5082016;28;20547;-77
2021/07/21 09:24:20;;;;;;;9.80;8.90;;;;;;;26.59;46.39;158214.63;5086529;28;20457;-77
2021/07/21 09:26:55;;;;;;;9.53;8.70;;;;;;;26.51;44.83;158192.34;5068361;28;20452;-77
2021/07/21 09:29:31;;;;;;;10.17;9.07;;;;;;;26.58;45.54;158210.72;5083376;28;20468;-77
2021/07/21 09:32:09;;;;;;;10.00;9.00;;;;;;;26.55;44.16;158202.84;5063844;28;20437;-77
2021/07/21 09:34:47;;;;;;;10.67;9.60;;;;;;;27.16;44.85;158362.69;5069474;28;20451;-77
2021/07/21 09:37:22;;;;;;;10.40;9.40;;;;;;;27.47;44.58;158441.38;5080198;28;20792;-77
2021/07/21 09:39:58;;;;;;;11.93;9.97;;;;;;;27.28;45.70;158392.84;5063520;28;20468;-77
2021/07/21 09:42:36;;;;;;;11.40;8.83;;;;;;;27.61;44.18;158479.41;5105412;28;20861;-77
2021/07/21 09:45:14;;;;;;;11.03;9.90;;;;;;;27.15;44.54;158358.78;5104689;28;20465;-77
2021/07/21 09:47:56;;;;;;;10.97;9.90;;;;;;;27.15;46.21;158358.78;5069751;28;20870;-77
2021/07/21 09:50:35;;;;;;;9.17;8.30;;;;;;;27.27;44.86;158388.94;5073050;28;20757;-77
2021/07/21 09:53:13;;;;;;;10.60;9.60;;;;;;;27.34;44.88;158408.56;5067560;28;20830;-77
2021/07/21 09:55:50;;;;;;;10.70;9.60;;;;;;;27.06;44.20;158336.50;5074791;28;20919;-77
2021/07/21 09:58:26;;;;;;;10.13;8.80;;;;;;;26.60;45.25;158217.25;5078120;28;20433;-77
2021/07/21 10:01:02;;;;;;;11.13;10.00;;;;;;;27.17;44.21;158365.31;5061198;28;20942;-77
2021/07/21 10:03:39;;;;;;;10.27;9.37;;;;;;;26.97;44.04;158311.63;5087993;28;20433;-77
2021/07/21 10:06:14;;;;;;;10.50;8.57;;;;;;;26.33;43.79;158145.22;5060757;28;20452;-77
2021/07/21 10:08:52;;;;;;;11.80;8.83;;;;;;;26.72;44.61;158246.03;5078342;28;20461;-77
2021/07/21 10:11:29;;;;;;;10.83;8.40;;;;;;;26.80;43.75;158268.38;5084842;28;20445;-77
2021/07/21 10:14:12;;;;;;;18.50;9.70;;;;;;;26.48;44.75;158185.81;5088742;28;20458;-76
2021/07/21 10:16:49;;;;;;;10.77;9.70;;;;;;;26.11;46.05;158088.84;5085124;28;20839;-76
2021/07/21 10:19:27;;;;;;;11.97;8.83;;;;;;;26.40;44.59;158164.84;5081650;28;20441;-77
2021/07/21 10:22:04;;;;;;;13.53;9.70;;;;;;;26.33;46.52;158146.53;5066336;28;20465;-77
2021/07/21 10:24:40;;;;;;;11.37;9.30;;;;;;;26.43;46.13;158172.72;5069207;28;20473;-76
2021/07/21 10:27:16;;;;;;;10.73;9.30;;;;;;;27.08;44.31;158340.44;5057416;28;20442;-77
2021/07/21 10:29:54;;;;;;;11.40;9.10;;;;;;;27.04;45.05;158329.94;5048174;28;20574;-77
2021/07/21 10:32:33;;;;;;;10.83;9.60;;;;;;;26.77;43.60;158260.50;5072895;28;20433;-77
2021/07/21 10:35:11;;;;;;;12.73;9.80;;;;;;;27.10;44.15;158347.00;5075043;28;20527;-76
2021/07/21 10:37:48;;;;;;;10.90;9.80;;;;;;;25.53;46.65;157938.31;5088815;28;20453;-76
2021/07/21 10:40:25;;;;;;;12.40;9.93;;;;;;;25.51;46.06;157933.06;5073670;28;20441;-77
2021/07/21 10:43:01;;;;;;;11.00;9.90;;;;;;;26.60;46.74;158217.25;5104025;28;20506;-76
2021/07/21 10:45:37;;;;;;;11.70;10.20;;;;;;;26.31;45.29;158141.31;5069661;28;20804;-77
2021/07/21 10:48:20;;;;;;;11.23;9.47;;;;;;;26.17;46.00;158104.63;5070848;28;20445;-77
2021/07/21 10:51:03;;;;;;;11.50;9.73;;;;;;;26.41;45.43;158166.16;5074876;28;20445;-77
2021/07/21 10:53:50;;;;;;;10.07;9.13;;;;;;;25.59;46.79;157954.03;5089309;28;20433;-76
2021/07/21 10:59:41;;;;;;;11.70;9.93;;;;;;;25.44;48.11;157916.00;5080292;28;20445;-76
2021/07/21 11:02:20;;;;;;;10.50;9.40;;;;;;;24.67;49.00;157714.47;5066236;28;20441;-76
2021/07/21 11:04:55;;;;;;;13.93;9.40;;;;;;;24.95;49.52;157787.75;5094149;28;20460;-77
2021/07/21 11:07:52;;;;;;;10.30;9.27;;;;;;;25.14;49.05;157837.50;5098516;28;20994;-76
2021/07/21 11:10:36;;;;;;;11.70;10.30;;;;;;;25.46;48.71;157918.63;5074087;28;20449;-77
2021/07/21 11:13:14;;;;;;;10.97;9.87;;;;;;;25.08;49.00;157821.78;5089927;28;20438;-76
2021/07/21 11:15:50;;;;;;;10.50;9.47;;;;;;;24.80;48.30;157748.53;5086381;28;20807;-77
2021/07/21 11:18:42;;;;;;;12.00;9.30;;;;;;;25.19;47.49;157850.59;5077319;28;20459;-76
2021/07/21 11:21:20;;;;;;;11.60;9.70;;;;;;;25.28;50.20;157872.84;5061687;28;20446;-76
2021/07/21 11:24:02;;;;;;;9.73;8.73;;;;;;;25.68;50.81;157977.56;5070477;28;20437;-77
2021/07/21 11:26:45;;;;;;;10.10;9.10;;;;;;;26.14;47.46;158096.75;5077905;28;21228;-77
2021/07/21 11:29:44;;;;;;;11.30;10.20;;;;;;;25.64;47.94;157965.78;5090778;28;20564;-77
2021/07/21 11:32:37;;;;;;;13.10;10.57;;;;;;;25.08;49.54;157821.78;5090324;28;20457;-76
2021/07/21 11:35:38;;;;;;;11.47;10.37;;;;;;;24.65;49.54;157709.19;5063906;28;20441;-76
2021/07/21 11:38:21;;;;;;;10.93;9.83;;;;;;;24.69;49.26;157719.69;5078963;28;20524;-76
2021/07/21 11:40:57;;;;;;;11.03;9.93;;;;;;;24.99;48.68;157796.94;5082756;28;20830;-76
2021/07/21 11:43:34;;;;;;;11.63;10.43;;;;;;;24.93;47.95;157782.53;5064806;28;20433;-77
2021/07/21 11:46:10;;;;;;;10.67;9.63;;;;;;;24.83;49.32;157756.38;5094321;28;20473;-76
2021/07/21 11:48:47;;;;;;;10.80;9.80;;;;;;;25.08;48.75;157821.78;5077998;28;20448;-76
2021/07/21 11:51:22;;;;;;;12.33;11.00;;;;;;;25.42;48.11;157910.75;5089202;28;20885;-76
2021/07/21 11:53:57;;;;;;;11.90;10.67;;;;;;;25.43;48.22;157913.41;5091415;28;20441;-76
2021/07/21 11:56:34;;;;;;;11.30;9.87;;;;;;;25.12;49.08;157832.28;5055410;28;20460;-77
2021/07/21 11:59:09;;;;;;;12.10;10.00;;;;;;;24.80;49.02;157748.53;5073483;28;20440;-76
2021/07/21 12:01:45;;;;;;;10.63;9.60;;;;;;;24.39;50.00;157641.19;5074987;28;20812;-76
2021/07/21 12:04:27;;;;;;;11.00;9.40;;;;;;;24.44;50.66;157654.25;5058742;28;20461;-84
2021/07/21 12:07:04;;;;;;;13.20;10.23;;;;;;;24.22;50.59;157599.31;5091623;28;20453;-84
2021/07/21 12:09:42;;;;;;;11.40;10.20;;;;;;;24.36;50.27;157633.38;5078661;28;20822;-84
2021/07/21 12:12:20;;;;;;;10.60;9.60;;;;;;;24.75;50.48;157736.66;5072510;28;20445;-85
2021/07/21 12:14:59;;;;;;;12.90;10.30;;;;;;;24.59;49.81;157693.53;5091465;28;20444;-84
2021/07/21 12:17:34;;;;;;;13.03;10.03;;;;;;;24.68;49.12;157718.38;5072752;28;20469;-85
2021/07/21 12:20:12;;;;;;;11.87;9.60;;;;;;;24.86;49.58;157762.94;5104861;28;20437;-84
2021/07/21 12:22:48;;;;;;;11.70;10.50;;;;;;;24.65;49.85;157709.19;5068682;28;20452;-85
2021/07/21 12:25:28;;;;;;;10.70;9.57;;;;;;;24.90;50.52;157774.69;5074117;28;20465;-85